4°C Temp
2°C Dewpoint
87% Humidity
Temperature
50 KM/H
31 MPH
27 KTS
340°
North North
West

Wind Speed
Rain
Showers
Pressure 1018 (hPa) - 30.06 (in)
Visibility 3.1 (mi) - 5.0 (km)

Current Conditions
LTBA
Location Atatürk International 6km (3.2mi)
Metar :LTBA 190450Z 34027KT 5000 RA BKN011 OVC022 04/02 Q1018 NOSIG RMK RWY17L 35022G34KT RWY05 34021KT RWY23 36022KT
Wed 19th December 07:50 am

Airport
  Metar Aviation API Data Provided by https://www.checkwx.com/ CSS/SVG/PHP scripts by weather34.com © 2015-2018